createdAt,value
2022-11-08T00:01:02.585Z,100542.06
2022-11-08T00:06:23.833Z,100530.53
2022-11-08T00:11:44.299Z,100537.66
2022-11-08T00:16:47.584Z,100528.44
2022-11-08T00:21:49.483Z,100534.69
2022-11-08T00:26:51.455Z,100535.59
2022-11-08T00:31:54.735Z,100535.63
2022-11-08T00:36:56.641Z,100538.91
2022-11-08T00:41:58.608Z,100532.84
2022-11-08T00:47:01.947Z,100534.69
2022-11-08T00:52:03.953Z,100531.16
2022-11-08T00:57:06.366Z,100527.38
2022-11-08T01:02:09.715Z,100529.84
2022-11-08T01:07:11.691Z,100535.97
2022-11-08T01:12:13.680Z,100523.44
2022-11-08T01:17:17.012Z,100526.78
2022-11-08T01:22:19.025Z,100528.03
2022-11-08T01:27:21.024Z,100532.63
2022-11-08T01:32:24.510Z,100528.34
2022-11-08T01:37:26.499Z,100530.34
2022-11-08T01:42:28.493Z,100536.69
2022-11-08T01:47:31.869Z,100525.13
2022-11-08T01:52:34.873Z,100522.75
2022-11-08T01:57:40.180Z,100524.66
2022-11-08T02:02:44.255Z,100529.19
2022-11-08T02:07:46.307Z,100522.16
2022-11-08T02:12:48.238Z,100525.75
2022-11-08T02:17:51.567Z,100522.31
2022-11-08T02:22:55.896Z,100522.38
2022-11-08T02:27:59.283Z,100522.38
2022-11-08T02:33:01.377Z,100522.47
2022-11-08T02:38:03.273Z,100521.56
2022-11-08T02:43:06.743Z,100513.84
2022-11-08T02:48:08.907Z,100512.06
2022-11-08T02:53:10.996Z,100519.16
2022-11-08T02:58:14.435Z,100511.31
2022-11-08T03:03:16.351Z,100506.06
2022-11-08T03:08:18.494Z,100510.25
2022-11-08T03:13:22.178Z,100501.66
2022-11-08T03:18:24.097Z,100505.28
2022-11-08T03:23:26.093Z,100508.78
2022-11-08T03:28:29.617Z,100508.72
2022-11-08T03:33:31.721Z,100513.13
2022-11-08T03:38:33.687Z,100510.59
2022-11-08T03:43:36.979Z,100506.25
2022-11-08T03:48:38.942Z,100509.66
2022-11-08T03:53:40.839Z,100508.00
2022-11-08T03:58:44.366Z,100509.69
2022-11-08T04:03:46.356Z,100515.97
2022-11-08T04:08:48.332Z,100510.63
2022-11-08T04:14:10.297Z,100505.34
2022-11-08T04:19:30.536Z,100512.44
2022-11-08T04:24:32.402Z,100506.38
2022-11-08T04:29:35.741Z,100499.47
2022-11-08T04:34:37.704Z,100495.09
2022-11-08T04:39:39.686Z,100494.97
2022-11-08T04:44:42.922Z,100492.41
2022-11-08T04:49:44.861Z,100485.47
2022-11-08T04:54:46.761Z,100489.84
2022-11-08T04:59:50.507Z,100488.94
2022-11-08T05:04:52.386Z,100493.34
2022-11-08T05:09:59.890Z,100481.19
2022-11-08T05:15:06.866Z,100475.84
2022-11-08T05:20:28.588Z,100473.97
2022-11-08T05:25:30.448Z,100478.41
2022-11-08T05:30:33.791Z,100474.94
2022-11-08T05:35:35.756Z,100474.88
2022-11-08T05:40:37.634Z,100474.97
2022-11-08T05:45:41.004Z,100474.16
2022-11-08T05:50:43.537Z,100470.78
2022-11-08T05:55:46.391Z,100472.59
2022-11-08T06:00:49.609Z,100475.22
2022-11-08T06:05:51.550Z,100473.41
2022-11-08T06:10:53.635Z,100477.00
2022-11-08T06:15:59.205Z,100469.00
2022-11-08T06:21:01.129Z,100467.38
2022-11-08T06:26:03.690Z,100466.47
2022-11-08T06:31:06.955Z,100462.84
2022-11-08T06:36:09.240Z,100471.66
2022-11-08T06:41:14.972Z,100463.78
2022-11-08T06:46:18.181Z,100460.09
2022-11-08T06:51:20.804Z,100460.13
2022-11-08T06:56:22.784Z,100459.19
2022-11-08T07:01:26.133Z,100463.34
2022-11-08T07:06:28.049Z,100457.88
2022-11-08T07:11:29.875Z,100468.31
2022-11-08T07:16:33.030Z,100463.00
2022-11-08T07:21:34.779Z,100460.97
2022-11-08T07:26:36.637Z,100457.25
2022-11-08T07:31:39.919Z,100460.16
2022-11-08T07:36:41.689Z,100460.78
2022-11-08T07:41:43.485Z,100466.34
2022-11-08T07:46:46.615Z,100465.72
2022-11-08T07:51:48.388Z,100461.50
2022-11-08T07:56:51.280Z,100455.13
2022-11-08T08:01:57.575Z,100451.59
2022-11-08T08:07:02.153Z,100441.41
2022-11-08T08:12:20.181Z,100441.41
2022-11-08T08:17:30.353Z,100430.09
2022-11-08T08:22:32.128Z,100435.41
2022-11-08T08:27:33.986Z,100428.72
2022-11-08T08:32:37.126Z,100411.28
2022-11-08T08:38:00.308Z,100410.41
2022-11-08T08:43:03.470Z,100405.81
2022-11-08T08:48:33.283Z,100392.25
2022-11-08T08:53:43.940Z,100388.75
2022-11-08T09:04:24.208Z,100370.09
2022-11-08T09:09:31.185Z,100378.34
2022-11-08T09:14:32.914Z,100358.84
2022-11-08T09:19:36.089Z,100359.19
2022-11-08T09:24:37.895Z,100357.34
2022-11-08T09:29:39.650Z,100345.41
2022-11-08T09:34:42.680Z,100341.97
2022-11-08T09:39:44.451Z,100339.97
2022-11-08T09:44:58.030Z,100350.09
2022-11-08T09:50:05.011Z,100337.06
2022-11-08T09:55:14.164Z,100323.50
2022-11-08T10:00:16.180Z,100335.41
2022-11-08T10:05:19.260Z,100327.28
2022-11-08T10:10:36.801Z,100319.25
2022-11-08T10:15:42.413Z,100322.25
2022-11-08T10:20:52.643Z,100306.22
2022-11-08T10:25:55.049Z,100301.53
2022-11-08T10:30:56.791Z,100299.00
2022-11-08T10:36:02.674Z,100293.56
2022-11-08T10:41:08.237Z,100295.78
2022-11-08T10:46:13.725Z,100296.91
2022-11-08T10:51:16.813Z,100280.13
2022-11-08T10:56:19.447Z,100281.19
2022-11-08T11:01:22.634Z,100271.19
2022-11-08T11:06:29.720Z,100233.97
2022-11-08T11:11:36.188Z,100246.75
2022-11-08T11:16:38.046Z,100237.59
2022-11-08T11:21:41.178Z,100220.72
2022-11-08T11:26:44.240Z,100224.03
2022-11-08T11:31:46.955Z,100218.03
2022-11-08T11:36:53.562Z,100206.50
2022-11-08T11:41:56.647Z,100199.88
2022-11-08T11:47:00.065Z,100203.09
2022-11-08T11:52:03.252Z,100194.78
2022-11-08T11:57:06.401Z,100196.22
2022-11-08T12:02:32.506Z,100202.63
2022-11-08T12:07:36.824Z,100191.69
2022-11-08T12:12:45.018Z,100194.19
2022-11-08T12:17:53.459Z,100175.31
2022-11-08T12:23:03.505Z,100162.31
2022-11-08T12:28:16.170Z,100170.13
2022-11-08T12:33:24.484Z,100166.81
2022-11-08T12:38:30.417Z,100157.72
2022-11-08T12:43:39.701Z,100155.88
2022-11-08T12:48:52.473Z,100146.22
2022-11-08T12:54:03.096Z,100160.84
2022-11-08T12:59:04.871Z,100150.66
2022-11-08T13:04:46.272Z,100143.66
2022-11-08T13:09:51.788Z,100148.66
2022-11-08T13:14:53.555Z,100140.69
2022-11-08T13:20:00.801Z,100134.97
2022-11-08T13:25:08.574Z,100131.38
2022-11-08T13:30:32.073Z,100129.94
2022-11-08T13:35:35.510Z,100126.31
2022-11-08T13:40:44.670Z,100111.78
2022-11-08T13:45:46.517Z,100117.09
2022-11-08T13:50:52.392Z,100117.03
2022-11-08T13:55:57.036Z,100105.84
2022-11-08T14:00:58.940Z,100095.19
2022-11-08T14:06:00.979Z,100107.94
2022-11-08T14:11:25.200Z,100109.19
2022-11-08T14:16:28.517Z,100116.50
2022-11-08T14:21:30.265Z,100118.19
2022-11-08T14:26:33.481Z,100116.25
2022-11-08T14:31:35.259Z,100118.59
2022-11-08T14:36:37.141Z,100114.03
2022-11-08T14:41:40.273Z,100098.22
2022-11-08T14:46:42.269Z,100105.09
2022-11-08T14:51:44.384Z,100108.06
2022-11-08T14:56:48.171Z,100100.47
2022-11-08T15:01:49.965Z,100088.31
2022-11-08T15:06:52.885Z,100085.47
2022-11-08T15:11:58.391Z,100086.78
2022-11-08T15:17:03.108Z,100089.41
2022-11-08T15:22:23.496Z,100094.88
2022-11-08T15:27:26.707Z,100093.34
2022-11-08T15:32:33.373Z,100097.69
2022-11-08T15:37:36.030Z,100091.53
2022-11-08T15:42:44.590Z,100096.19
2022-11-08T15:47:47.160Z,100100.91
2022-11-08T15:52:49.867Z,100096.41
2022-11-08T15:57:53.120Z,100097.28
2022-11-08T16:02:55.072Z,100085.09
2022-11-08T16:07:56.817Z,100084.41
2022-11-08T16:13:02.827Z,100107.66
2022-11-08T16:18:04.706Z,100100.69
2022-11-08T16:23:07.921Z,100086.44
2022-11-08T16:28:14.902Z,100100.34
2022-11-08T16:33:19.222Z,100098.81
2022-11-08T16:38:22.899Z,100099.84
2022-11-08T16:43:26.120Z,100107.06
2022-11-08T16:48:27.868Z,100100.03
2022-11-08T16:53:29.883Z,100093.03
2022-11-08T16:58:33.078Z,100115.16
2022-11-08T17:03:34.953Z,100115.16
2022-11-08T17:08:37.056Z,100099.09
2022-11-08T17:13:40.820Z,100088.25
2022-11-08T17:18:42.601Z,100081.50
2022-11-08T17:23:44.375Z,100064.97
2022-11-08T17:28:47.452Z,100077.22
2022-11-08T17:33:49.250Z,100056.81
2022-11-08T17:38:51.227Z,100065.31
2022-11-08T17:43:54.341Z,100071.00
2022-11-08T17:48:56.096Z,100087.16
2022-11-08T17:53:57.877Z,100091.75
2022-11-08T17:59:01.021Z,100097.09
2022-11-08T18:04:03.530Z,100101.41
2022-11-08T18:09:05.354Z,100109.25
2022-11-08T18:14:08.442Z,100107.66
2022-11-08T18:19:10.261Z,100103.97
2022-11-08T18:24:12.255Z,100102.19
2022-11-08T18:29:15.359Z,100096.91
2022-11-08T18:34:17.115Z,100094.44
2022-11-08T18:39:19.959Z,100107.44
2022-11-08T18:44:23.224Z,100101.38
2022-11-08T18:49:25.268Z,100105.94
2022-11-08T18:54:27.028Z,100093.72
2022-11-08T18:59:30.222Z,100098.66
2022-11-08T19:04:31.995Z,100093.53
2022-11-08T19:09:34.084Z,100099.06
2022-11-08T19:14:37.471Z,100110.34
2022-11-08T19:19:39.388Z,100103.44
2022-11-08T19:24:41.165Z,100091.47
2022-11-08T19:29:44.223Z,100084.91
2022-11-08T19:34:47.075Z,100098.25
2022-11-08T19:39:48.921Z,100093.72
2022-11-08T19:44:52.053Z,100091.34
2022-11-08T19:49:53.921Z,100092.78
2022-11-08T19:54:55.688Z,100101.84
2022-11-08T19:59:58.788Z,100111.56
2022-11-08T20:05:00.509Z,100112.59
2022-11-08T20:10:02.248Z,100106.84
2022-11-08T20:15:06.817Z,100108.84
2022-11-08T20:20:09.111Z,100098.19
2022-11-08T20:25:11.647Z,100112.78
2022-11-08T20:30:14.968Z,100111.06
2022-11-08T20:35:19.022Z,100109.47
2022-11-08T20:40:25.003Z,100108.72
2022-11-08T20:45:28.177Z,100102.59
2022-11-08T20:50:30.094Z,100114.59
2022-11-08T20:55:31.944Z,100103.44
2022-11-08T21:00:57.396Z,100107.63
2022-11-08T21:05:58.465Z,100103.94
2022-11-08T21:11:00.393Z,100089.28
2022-11-08T21:16:28.108Z,100092.34
2022-11-08T21:21:26.976Z,100094.13
2022-11-08T21:26:28.850Z,100089.59
2022-11-08T21:31:31.983Z,100088.50
2022-11-08T21:36:33.966Z,100085.72
2022-11-08T21:41:35.763Z,100086.59
2022-11-08T21:46:38.961Z,100096.19
2022-11-08T21:51:40.771Z,100096.19
2022-11-08T21:56:42.580Z,100102.47
2022-11-08T22:01:45.616Z,100104.78
2022-11-08T22:06:47.961Z,100116.09
2022-11-08T22:11:49.940Z,100114.75
2022-11-08T22:16:53.123Z,100123.66
2022-11-08T22:21:54.884Z,100131.38
2022-11-08T22:26:56.635Z,100122.97
2022-11-08T22:31:59.673Z,100114.03
2022-11-08T22:37:01.466Z,100123.16
2022-11-08T22:42:03.455Z,100127.66
2022-11-08T22:47:06.633Z,100124.34
2022-11-08T22:52:08.382Z,100121.75
2022-11-08T22:57:10.151Z,100119.47
2022-11-08T23:02:13.282Z,100121.78
2022-11-08T23:07:15.054Z,100123.56
2022-11-08T23:12:35.518Z,100117.25
2022-11-08T23:17:38.636Z,100116.75
2022-11-08T23:22:58.904Z,100132.56
2022-11-08T23:28:19.266Z,100129.78
2022-11-08T23:33:22.609Z,100142.41
2022-11-08T23:38:24.646Z,100132.00
2022-11-08T23:43:44.953Z,100124.69
2022-11-08T23:48:48.060Z,100124.41
2022-11-08T23:53:49.783Z,100122.50
2022-11-08T23:58:51.526Z,100116.03
